createdAt,value
2022-11-17T00:01:44.223Z,0.50
2022-11-17T00:04:13.244Z,0.50
2022-11-17T00:06:41.929Z,0.50
2022-11-17T00:09:20.850Z,0.50
2022-11-17T00:12:08.516Z,0.50
2022-11-17T00:14:38.146Z,0.50
2022-11-17T00:17:12.345Z,0.50
2022-11-17T00:19:59.710Z,0.50
2022-11-17T00:22:28.220Z,0.50
2022-11-17T00:24:56.877Z,0.50
2022-11-17T00:27:25.795Z,0.70
2022-11-17T00:29:54.640Z,0.60
2022-11-17T00:32:41.808Z,0.50
2022-11-17T00:35:10.406Z,0.60
2022-11-17T00:38:00.970Z,0.60
2022-11-17T00:40:29.525Z,0.50
2022-11-17T00:42:57.836Z,0.50
2022-11-17T00:45:26.958Z,0.60
2022-11-17T00:47:55.638Z,0.70
2022-11-17T00:50:25.091Z,0.60
2022-11-17T00:52:53.604Z,0.60
2022-11-17T00:55:22.271Z,0.50
2022-11-17T00:57:50.923Z,0.50
2022-11-17T01:00:22.134Z,0.60
2022-11-17T01:02:50.868Z,0.60
2022-11-17T01:05:19.634Z,0.50
2022-11-17T01:07:48.447Z,0.50
2022-11-17T01:10:17.097Z,0.90
2022-11-17T01:12:46.101Z,0.50
2022-11-17T01:15:14.834Z,0.40
2022-11-17T01:17:43.498Z,0.60
2022-11-17T01:20:12.319Z,0.50
2022-11-17T01:22:41.161Z,0.50
2022-11-17T01:25:10.197Z,0.50
2022-11-17T01:27:38.839Z,0.90
2022-11-17T01:30:08.502Z,1.20
2022-11-17T01:32:36.954Z,0.70
2022-11-17T01:35:05.789Z,0.60
2022-11-17T01:37:34.284Z,0.80
2022-11-17T01:40:03.072Z,0.60
2022-11-17T01:42:32.385Z,0.60
2022-11-17T01:45:20.799Z,0.60
2022-11-17T01:48:00.242Z,0.60
2022-11-17T01:50:34.617Z,0.70
2022-11-17T01:53:08.457Z,0.70
2022-11-17T01:55:40.473Z,0.50
2022-11-17T01:58:20.515Z,0.60
2022-11-17T02:00:49.070Z,0.60
2022-11-17T02:03:18.591Z,0.60
2022-11-17T02:05:55.828Z,0.60
2022-11-17T02:08:29.236Z,0.70
2022-11-17T02:10:58.128Z,0.60
2022-11-17T02:13:26.712Z,0.50
2022-11-17T02:15:55.183Z,0.60
2022-11-17T02:18:24.161Z,0.70
2022-11-17T02:20:59.267Z,0.60
2022-11-17T02:23:42.540Z,0.50
2022-11-17T02:26:33.607Z,0.70
2022-11-17T02:29:08.242Z,0.60
2022-11-17T02:31:47.210Z,0.70
2022-11-17T02:34:27.925Z,0.60
2022-11-17T02:37:16.335Z,0.50
2022-11-17T02:40:06.443Z,0.90
2022-11-17T02:43:01.685Z,0.60
2022-11-17T02:45:42.299Z,0.60
2022-11-17T02:48:19.855Z,0.50
2022-11-17T02:50:49.483Z,0.50
2022-11-17T02:53:19.878Z,0.50
2022-11-17T02:55:53.265Z,0.90
2022-11-17T02:58:22.554Z,0.60
2022-11-17T03:00:59.110Z,0.60
2022-11-17T03:03:52.152Z,0.60
2022-11-17T03:06:36.931Z,0.70
2022-11-17T03:09:21.812Z,0.50
2022-11-17T03:11:57.787Z,0.50
2022-11-17T03:14:49.899Z,0.60
2022-11-17T03:17:46.726Z,0.50
2022-11-17T03:20:21.416Z,0.60
2022-11-17T03:22:50.146Z,1.10
2022-11-17T03:25:22.511Z,1.70
2022-11-17T03:27:57.578Z,0.60
2022-11-17T03:30:27.014Z,0.60
2022-11-17T03:33:03.200Z,0.60
2022-11-17T03:35:35.524Z,0.60
2022-11-17T03:38:11.562Z,0.50
2022-11-17T03:40:45.514Z,0.60
2022-11-17T03:43:17.670Z,0.60
2022-11-17T03:45:53.807Z,0.70
2022-11-17T03:48:26.736Z,0.70
2022-11-17T03:51:10.077Z,0.80
2022-11-17T03:53:39.295Z,0.60
2022-11-17T03:56:10.915Z,0.50
2022-11-17T03:58:50.479Z,0.60
2022-11-17T04:01:22.712Z,0.60
2022-11-17T04:03:51.192Z,0.80
2022-11-17T04:06:19.994Z,0.60
2022-11-17T04:08:48.663Z,0.60
2022-11-17T04:11:35.341Z,0.90
2022-11-17T04:14:22.593Z,0.50
2022-11-17T04:16:51.595Z,0.70
2022-11-17T04:19:20.177Z,0.90
2022-11-17T04:21:48.570Z,0.60
2022-11-17T04:24:17.441Z,1.10
2022-11-17T04:27:04.587Z,0.50
2022-11-17T04:29:35.034Z,0.60
2022-11-17T04:32:03.801Z,0.60
2022-11-17T04:34:32.533Z,0.70
2022-11-17T04:37:06.903Z,0.60
2022-11-17T04:39:39.698Z,0.70
2022-11-17T04:42:08.325Z,1.40
2022-11-17T04:44:36.939Z,0.70
2022-11-17T04:47:05.532Z,0.60
2022-11-17T04:49:34.486Z,1.30
2022-11-17T04:52:03.470Z,0.90
2022-11-17T04:54:32.363Z,0.70
2022-11-17T04:57:01.091Z,0.80
2022-11-17T04:59:29.743Z,0.80
2022-11-17T05:02:02.618Z,0.70
2022-11-17T05:04:53.352Z,1.20
2022-11-17T05:07:22.187Z,0.90
2022-11-17T05:09:50.910Z,0.90
2022-11-17T05:12:38.054Z,1.10
2022-11-17T05:15:07.226Z,0.70
2022-11-17T05:17:35.537Z,1.00
2022-11-17T05:20:04.317Z,1.40
2022-11-17T05:22:51.168Z,0.70
2022-11-17T05:25:19.974Z,1.40
2022-11-17T05:27:48.865Z,0.90
2022-11-17T05:30:17.403Z,1.10
2022-11-17T05:32:46.333Z,0.80
2022-11-17T05:35:15.134Z,0.90
2022-11-17T05:37:43.590Z,0.90
2022-11-17T05:40:12.334Z,1.10
2022-11-17T05:42:40.998Z,1.20
2022-11-17T05:45:10.237Z,1.20
2022-11-17T05:47:39.008Z,1.00
2022-11-17T05:50:08.295Z,1.50
2022-11-17T05:52:36.869Z,0.80
2022-11-17T05:55:05.665Z,1.00
2022-11-17T05:57:36.031Z,0.80
2022-11-17T06:00:05.892Z,1.70
2022-11-17T06:02:41.730Z,1.00
2022-11-17T06:05:15.616Z,1.80
2022-11-17T06:07:47.925Z,1.20
2022-11-17T06:10:16.640Z,1.60
2022-11-17T06:12:45.006Z,1.50
2022-11-17T06:15:13.724Z,1.40
2022-11-17T06:18:19.571Z,0.90
2022-11-17T06:20:51.048Z,1.50
2022-11-17T06:23:21.948Z,1.30
2022-11-17T06:25:50.913Z,1.10
2022-11-17T06:28:21.734Z,1.60
2022-11-17T06:30:51.578Z,1.30
2022-11-17T06:33:20.455Z,1.20
2022-11-17T06:35:50.541Z,1.70
2022-11-17T06:38:19.218Z,1.80
2022-11-17T06:40:48.033Z,1.60
2022-11-17T06:43:17.913Z,1.10
2022-11-17T06:45:48.362Z,1.90
2022-11-17T06:48:19.174Z,1.60
2022-11-17T06:50:49.973Z,1.80
2022-11-17T06:53:18.563Z,1.70
2022-11-17T06:56:10.704Z,2.00
2022-11-17T06:58:42.587Z,2.30
2022-11-17T07:01:16.068Z,2.20
2022-11-17T07:03:45.064Z,1.70
2022-11-17T07:06:14.071Z,2.30
2022-11-17T07:08:42.760Z,2.00
2022-11-17T07:11:14.551Z,1.90
2022-11-17T07:13:43.395Z,2.00
2022-11-17T07:16:23.274Z,2.10
2022-11-17T07:18:54.105Z,3.10
2022-11-17T07:21:23.459Z,1.70
2022-11-17T07:23:51.947Z,3.10
2022-11-17T07:26:20.720Z,2.30
2022-11-17T07:28:49.724Z,2.90
2022-11-17T07:31:18.669Z,2.80
2022-11-17T07:33:47.656Z,1.60
2022-11-17T07:36:16.466Z,2.00
2022-11-17T07:38:45.122Z,1.90
2022-11-17T07:41:15.443Z,2.30
2022-11-17T07:43:44.346Z,2.70
2022-11-17T07:46:14.799Z,2.20
2022-11-17T07:48:44.618Z,2.50
2022-11-17T07:51:15.026Z,2.50
2022-11-17T07:53:43.713Z,2.80
2022-11-17T07:56:13.360Z,2.80
2022-11-17T07:58:42.352Z,3.10
2022-11-17T08:01:16.373Z,3.10
2022-11-17T08:03:45.817Z,2.70
2022-11-17T08:06:14.489Z,2.60
2022-11-17T08:08:43.161Z,3.00
2022-11-17T08:11:14.264Z,2.80
2022-11-17T08:13:43.831Z,2.70
2022-11-17T08:16:13.603Z,4.30
2022-11-17T08:18:43.995Z,1.70
2022-11-17T08:21:16.374Z,2.10
2022-11-17T08:23:45.258Z,3.10
2022-11-17T08:26:14.657Z,2.40
2022-11-17T08:28:43.702Z,3.50
2022-11-17T08:31:13.725Z,2.90
2022-11-17T08:33:42.567Z,2.90
2022-11-17T08:36:11.976Z,3.60
2022-11-17T08:38:40.953Z,2.90
2022-11-17T08:41:11.141Z,2.70
2022-11-17T08:43:40.148Z,3.10
2022-11-17T08:46:13.984Z,3.40
2022-11-17T08:48:42.794Z,2.40
2022-11-17T08:51:13.378Z,2.80
2022-11-17T08:53:42.378Z,3.20
2022-11-17T08:56:13.423Z,2.70
2022-11-17T08:58:46.083Z,2.70
2022-11-17T09:01:17.627Z,3.50
2022-11-17T09:03:48.246Z,2.60
2022-11-17T09:06:19.108Z,3.00
2022-11-17T09:08:48.049Z,4.20
2022-11-17T09:11:17.611Z,4.00
2022-11-17T09:13:47.899Z,3.40
2022-11-17T09:16:17.024Z,5.00
2022-11-17T09:18:46.048Z,4.20
2022-11-17T09:21:17.433Z,3.20
2022-11-17T09:23:46.265Z,4.60
2022-11-17T09:26:17.206Z,4.70
2022-11-17T09:28:46.080Z,3.20
2022-11-17T09:31:22.780Z,3.60
2022-11-17T09:33:51.616Z,3.40
2022-11-17T09:36:20.757Z,2.70
2022-11-17T09:38:49.695Z,2.80
2022-11-17T09:41:18.233Z,3.10
2022-11-17T09:44:25.628Z,3.60
2022-11-17T09:47:15.084Z,2.50
2022-11-17T09:49:58.941Z,3.00
2022-11-17T09:52:37.718Z,2.20
2022-11-17T09:55:21.243Z,2.40
2022-11-17T09:58:20.146Z,1.60
2022-11-17T10:00:53.785Z,2.40
2022-11-17T10:03:27.621Z,2.10
2022-11-17T10:05:56.540Z,2.40
2022-11-17T10:08:46.585Z,1.60
2022-11-17T10:11:33.213Z,2.30
2022-11-17T10:14:17.000Z,1.60
2022-11-17T10:16:52.068Z,1.40
2022-11-17T10:19:24.355Z,1.40
2022-11-17T10:22:20.720Z,1.70
2022-11-17T10:25:00.123Z,1.20
2022-11-17T10:27:34.359Z,1.40
2022-11-17T10:30:27.484Z,1.50
2022-11-17T10:33:01.527Z,1.20
2022-11-17T10:35:37.517Z,1.40
2022-11-17T10:38:24.126Z,1.80
2022-11-17T10:40:55.120Z,2.90
2022-11-17T10:43:35.068Z,1.40
2022-11-17T10:46:15.500Z,2.80
2022-11-17T10:49:06.061Z,2.00
2022-11-17T10:51:36.599Z,2.30
2022-11-17T10:54:21.784Z,2.20
2022-11-17T10:56:57.858Z,1.90
2022-11-17T10:59:31.101Z,2.50
2022-11-17T11:02:16.179Z,1.90
2022-11-17T11:04:44.980Z,2.50
2022-11-17T11:07:24.692Z,2.10
2022-11-17T11:10:06.879Z,3.00
2022-11-17T11:12:57.747Z,2.00
2022-11-17T11:15:36.568Z,1.70
2022-11-17T11:18:18.891Z,2.90
2022-11-17T11:20:54.133Z,2.10
2022-11-17T11:23:35.542Z,2.50
2022-11-17T11:26:13.521Z,2.60
2022-11-17T11:28:55.008Z,2.90
2022-11-17T11:31:34.130Z,2.10
2022-11-17T11:34:37.029Z,2.70
2022-11-17T11:37:13.744Z,2.00
2022-11-17T11:40:02.655Z,1.80
2022-11-17T11:43:14.885Z,2.30
2022-11-17T11:46:07.802Z,2.30
2022-11-17T11:48:38.603Z,1.70
2022-11-17T11:51:24.251Z,1.80
2022-11-17T11:54:17.708Z,2.30
2022-11-17T11:56:50.136Z,1.40
2022-11-17T11:59:51.704Z,1.90
2022-11-17T12:02:38.726Z,2.00
2022-11-17T12:05:17.455Z,2.70
2022-11-17T12:07:57.145Z,1.50
2022-11-17T12:10:50.265Z,1.70
2022-11-17T12:13:22.790Z,1.30
2022-11-17T12:15:51.911Z,2.40
2022-11-17T12:18:20.848Z,1.30
2022-11-17T12:21:23.288Z,1.20
2022-11-17T12:24:10.949Z,1.60
2022-11-17T12:26:39.931Z,1.60
2022-11-17T12:29:23.852Z,1.40
2022-11-17T12:31:57.927Z,1.40
2022-11-17T12:34:36.866Z,2.00
2022-11-17T12:37:08.488Z,1.30
2022-11-17T12:39:56.016Z,1.90
2022-11-17T12:42:25.219Z,1.60
2022-11-17T12:45:08.351Z,1.70
2022-11-17T12:47:41.926Z,2.10
2022-11-17T12:50:19.770Z,1.50
2022-11-17T12:53:28.192Z,3.10
2022-11-17T12:56:22.786Z,1.90
2022-11-17T12:59:06.701Z,1.80
2022-11-17T13:02:04.285Z,2.10
2022-11-17T13:04:56.108Z,2.10
2022-11-17T13:07:27.114Z,1.70
2022-11-17T13:09:58.259Z,1.60
2022-11-17T13:12:32.051Z,1.50
2022-11-17T13:15:06.634Z,1.80
2022-11-17T13:17:45.591Z,1.60
2022-11-17T13:20:31.611Z,1.70
2022-11-17T13:23:22.884Z,2.00
2022-11-17T13:25:52.873Z,1.00
2022-11-17T13:28:32.840Z,1.70
2022-11-17T13:31:02.559Z,1.10
2022-11-17T13:33:35.408Z,1.40
2022-11-17T13:36:28.196Z,1.60
2022-11-17T13:39:03.165Z,1.70
2022-11-17T13:41:39.210Z,2.10
2022-11-17T13:44:15.188Z,1.60
2022-11-17T13:46:44.000Z,1.50
2022-11-17T13:49:33.926Z,1.20
2022-11-17T13:52:03.899Z,1.40
2022-11-17T13:54:32.823Z,1.40
2022-11-17T13:57:09.122Z,1.00
2022-11-17T13:59:40.238Z,1.40
2022-11-17T14:02:18.085Z,1.80
2022-11-17T14:05:14.246Z,1.20
2022-11-17T14:07:44.531Z,0.90
2022-11-17T14:10:37.074Z,1.10
2022-11-17T14:13:20.382Z,1.50
2022-11-17T14:16:00.880Z,1.20
2022-11-17T14:18:32.418Z,1.10
2022-11-17T14:21:16.954Z,1.80
2022-11-17T14:23:46.848Z,1.10
2022-11-17T14:26:21.069Z,1.00
2022-11-17T14:28:51.782Z,1.50
2022-11-17T14:31:20.898Z,1.60
2022-11-17T14:33:51.468Z,1.10
2022-11-17T14:36:20.573Z,1.20
2022-11-17T14:38:49.946Z,1.50
2022-11-17T14:41:19.685Z,1.40
2022-11-17T14:43:49.215Z,1.10
2022-11-17T14:46:27.414Z,1.00
2022-11-17T14:48:56.713Z,1.00
2022-11-17T14:51:26.614Z,1.10
2022-11-17T14:53:55.308Z,1.40
2022-11-17T14:56:24.976Z,1.80
2022-11-17T14:59:01.185Z,0.90
2022-11-17T15:01:32.642Z,1.40
2022-11-17T15:04:27.012Z,1.00
2022-11-17T15:06:52.758Z,1.00
2022-11-17T15:09:21.725Z,1.30
2022-11-17T15:11:52.914Z,1.70
2022-11-17T15:14:21.417Z,1.20
2022-11-17T15:16:50.396Z,1.30
2022-11-17T15:19:19.490Z,0.90
2022-11-17T15:21:48.006Z,1.10
2022-11-17T15:24:16.939Z,0.80
2022-11-17T15:26:45.987Z,0.80
2022-11-17T15:29:18.640Z,0.90
2022-11-17T15:31:48.174Z,1.00
2022-11-17T15:34:20.245Z,0.90
2022-11-17T15:36:50.031Z,1.10
2022-11-17T15:39:19.091Z,0.90
2022-11-17T15:41:48.149Z,0.90
2022-11-17T15:44:17.250Z,1.10
2022-11-17T15:46:47.839Z,1.00
2022-11-17T15:49:17.187Z,1.20
2022-11-17T15:51:46.347Z,1.20
2022-11-17T15:54:20.427Z,1.40
2022-11-17T15:56:51.887Z,1.20
2022-11-17T15:59:20.803Z,1.10
2022-11-17T16:01:49.827Z,1.40
2022-11-17T16:04:18.805Z,1.00
2022-11-17T16:06:47.943Z,0.80
2022-11-17T16:09:17.317Z,0.90
2022-11-17T16:11:46.695Z,1.20
2022-11-17T16:14:16.048Z,0.70
2022-11-17T16:16:46.917Z,0.80
2022-11-17T16:19:16.121Z,0.70
2022-11-17T16:21:45.526Z,1.10
2022-11-17T16:24:14.468Z,1.00
2022-11-17T16:26:45.691Z,1.20
2022-11-17T16:29:14.503Z,0.80
2022-11-17T16:31:43.408Z,1.30
2022-11-17T16:34:16.660Z,1.00
2022-11-17T16:36:46.248Z,0.80
2022-11-17T16:39:20.999Z,0.90
2022-11-17T16:41:52.193Z,0.70
2022-11-17T16:44:21.347Z,1.00
2022-11-17T16:46:50.847Z,0.80
2022-11-17T16:49:20.883Z,1.20
2022-11-17T16:51:51.919Z,1.20
2022-11-17T16:54:21.415Z,1.30
2022-11-17T16:56:50.004Z,1.00
2022-11-17T16:59:19.111Z,1.30
2022-11-17T17:01:48.601Z,1.70
2022-11-17T17:04:17.499Z,1.40
2022-11-17T17:06:47.055Z,1.60
2022-11-17T17:09:16.843Z,1.10
2022-11-17T17:11:46.611Z,1.00
2022-11-17T17:14:16.704Z,1.60
2022-11-17T17:16:45.653Z,1.00
2022-11-17T17:19:16.112Z,1.10
2022-11-17T17:21:46.505Z,1.80
2022-11-17T17:24:15.231Z,2.90
2022-11-17T17:26:44.180Z,1.40
2022-11-17T17:29:13.943Z,1.20
2022-11-17T17:31:43.389Z,1.80
2022-11-17T17:34:13.984Z,1.70
2022-11-17T17:36:42.911Z,1.50
2022-11-17T17:39:15.168Z,1.30
2022-11-17T17:41:45.167Z,1.30
2022-11-17T17:44:19.158Z,1.00
2022-11-17T17:46:49.358Z,0.70
2022-11-17T17:49:20.006Z,1.00
2022-11-17T17:51:49.124Z,0.70
2022-11-17T17:54:20.885Z,0.60
2022-11-17T17:56:49.940Z,0.70
2022-11-17T17:59:19.969Z,0.60
2022-11-17T18:01:49.193Z,0.60
2022-11-17T18:04:18.365Z,0.50
2022-11-17T18:06:48.903Z,0.50
2022-11-17T18:09:20.204Z,0.60
2022-11-17T18:11:52.768Z,0.40
2022-11-17T18:14:25.142Z,0.50
2022-11-17T18:16:54.313Z,0.50
2022-11-17T18:19:26.926Z,0.40
2022-11-17T18:21:58.351Z,0.50
2022-11-17T18:24:27.513Z,0.40
2022-11-17T18:26:56.303Z,0.80
2022-11-17T18:29:25.835Z,0.50
2022-11-17T18:31:54.566Z,0.40
2022-11-17T18:34:25.090Z,0.30
2022-11-17T18:36:56.661Z,0.60
2022-11-17T18:39:25.545Z,0.50
2022-11-17T18:41:54.360Z,0.50
2022-11-17T18:44:23.249Z,0.40
2022-11-17T18:46:51.659Z,0.50
2022-11-17T18:49:20.699Z,0.70
2022-11-17T18:51:49.749Z,0.60
2022-11-17T18:54:18.596Z,0.60
2022-11-17T18:56:47.146Z,0.50
2022-11-17T18:59:16.564Z,0.60
2022-11-17T19:01:46.024Z,0.50
2022-11-17T19:04:15.942Z,0.60
2022-11-17T19:06:44.688Z,0.50
2022-11-17T19:09:14.575Z,0.50
2022-11-17T19:11:43.679Z,0.70
2022-11-17T19:14:12.554Z,0.60
2022-11-17T19:16:44.810Z,0.80
2022-11-17T19:19:14.988Z,0.80
2022-11-17T19:21:44.698Z,0.80
2022-11-17T19:24:13.766Z,0.60
2022-11-17T19:26:43.753Z,0.80
2022-11-17T19:29:17.162Z,0.70
2022-11-17T19:31:47.568Z,1.50
2022-11-17T19:34:16.804Z,0.60
2022-11-17T19:36:46.231Z,0.70
2022-11-17T19:39:15.673Z,0.60
2022-11-17T19:41:45.912Z,0.80
2022-11-17T19:44:14.848Z,0.90
2022-11-17T19:46:44.199Z,0.50
2022-11-17T19:49:13.721Z,0.50
2022-11-17T19:51:43.038Z,0.50
2022-11-17T19:54:14.629Z,0.40
2022-11-17T19:56:43.578Z,0.50
2022-11-17T19:59:16.221Z,0.50
2022-11-17T20:01:45.957Z,0.50
2022-11-17T20:04:15.114Z,0.60
2022-11-17T20:06:44.008Z,0.40
2022-11-17T20:09:15.674Z,0.50
2022-11-17T20:11:44.672Z,0.50
2022-11-17T20:14:15.275Z,0.40
2022-11-17T20:16:43.706Z,0.40
2022-11-17T20:19:13.620Z,0.40
2022-11-17T20:21:42.738Z,0.40
2022-11-17T20:24:11.702Z,0.40
2022-11-17T20:26:43.163Z,0.40
2022-11-17T20:29:11.980Z,0.30
2022-11-17T20:31:40.574Z,0.30
2022-11-17T20:34:13.524Z,0.30
2022-11-17T20:36:42.240Z,0.30
2022-11-17T20:39:12.117Z,0.30
2022-11-17T20:41:40.809Z,0.30
2022-11-17T20:44:25.039Z,0.40
2022-11-17T20:46:55.783Z,0.30
2022-11-17T20:49:25.757Z,0.30
2022-11-17T20:51:54.404Z,0.20
2022-11-17T20:54:23.133Z,0.30
2022-11-17T20:56:52.051Z,0.40
2022-11-17T20:59:20.977Z,0.30
2022-11-17T21:01:53.438Z,0.30
2022-11-17T21:04:22.515Z,0.30
2022-11-17T21:06:51.428Z,0.30
2022-11-17T21:09:20.471Z,0.40
2022-11-17T21:11:58.651Z,0.30
2022-11-17T21:14:28.591Z,0.30
2022-11-17T21:17:01.331Z,0.40
2022-11-17T21:19:30.135Z,0.30
2022-11-17T21:21:58.873Z,0.30
2022-11-17T21:24:28.768Z,0.30
2022-11-17T21:26:57.845Z,0.40
2022-11-17T21:29:26.550Z,0.30
2022-11-17T21:31:55.438Z,0.30
2022-11-17T21:34:24.410Z,0.40
2022-11-17T21:36:55.252Z,0.30
2022-11-17T21:39:23.875Z,0.40
2022-11-17T21:41:52.906Z,0.20
2022-11-17T21:44:22.092Z,0.30
2022-11-17T21:46:50.982Z,0.30
2022-11-17T21:49:20.452Z,0.30
2022-11-17T21:51:49.374Z,0.30
2022-11-17T21:54:18.143Z,0.30
2022-11-17T21:56:47.605Z,0.30
2022-11-17T21:59:18.255Z,0.40
2022-11-17T22:01:47.254Z,0.40
2022-11-17T22:04:17.150Z,0.30
2022-11-17T22:06:46.452Z,0.40
2022-11-17T22:09:15.632Z,0.30
2022-11-17T22:11:44.964Z,0.40
2022-11-17T22:14:16.370Z,0.30
2022-11-17T22:16:53.315Z,0.30
2022-11-17T22:19:24.222Z,0.30
2022-11-17T22:21:55.499Z,0.40
2022-11-17T22:24:24.144Z,0.40
2022-11-17T22:26:53.015Z,1.00
2022-11-17T22:29:23.172Z,0.40
2022-11-17T22:31:52.482Z,0.40
2022-11-17T22:34:21.109Z,0.40
2022-11-17T22:36:49.724Z,0.20
2022-11-17T22:39:18.596Z,0.30
2022-11-17T22:41:47.396Z,0.30
2022-11-17T22:44:17.450Z,0.30
2022-11-17T22:46:46.840Z,0.20
2022-11-17T22:49:15.911Z,0.20
2022-11-17T22:52:03.539Z,0.20
2022-11-17T22:54:32.848Z,0.10
2022-11-17T22:57:01.881Z,0.20
2022-11-17T22:59:31.560Z,0.20
2022-11-17T23:02:00.624Z,0.20
2022-11-17T23:04:29.717Z,0.20
2022-11-17T23:07:01.741Z,0.10
2022-11-17T23:09:31.200Z,0.10
2022-11-17T23:12:00.018Z,0.20
2022-11-17T23:14:28.994Z,0.20
2022-11-17T23:16:57.737Z,0.10
2022-11-17T23:19:26.359Z,0.10
2022-11-17T23:21:55.224Z,0.10
2022-11-17T23:24:24.282Z,0.10
2022-11-17T23:26:53.175Z,0.10
2022-11-17T23:29:21.692Z,0.10
2022-11-17T23:31:50.460Z,0.10
2022-11-17T23:34:19.176Z,0.10
2022-11-17T23:36:47.761Z,0.10
2022-11-17T23:39:16.826Z,0.10
2022-11-17T23:41:45.640Z,0.10
2022-11-17T23:44:14.493Z,0.10
2022-11-17T23:46:43.990Z,0.10
2022-11-17T23:49:12.519Z,0.10
2022-11-17T23:51:41.686Z,0.10
2022-11-17T23:54:14.058Z,0.00
2022-11-17T23:56:42.750Z,0.10
2022-11-17T23:59:11.727Z,0.10
